Time;durP1;ratioP1;P1;durP2;ratioP2;P2;SDS_P1;SDS_P2;PMS_P1;PMS_P2;Temp;Humidity;BMP_temperature;BMP_pressure;BME280_temperature;BME280_humidity;BME280_pressure;Samples;Min_cycle;Max_cycle;Signal;HPM_P1;HPM_P2
2022/04/03 00:01:33;;;;;;;;;;;;;;;-2.55;73.42;102376.00;5105359;28;19927;-73
2022/04/03 00:03:58;;;;;;;;;;;;;;;-2.60;73.52;102378.78;5104489;28;20328;-73
2022/04/03 00:06:24;;;;;;;;;;;;;;;-2.65;74.64;102374.88;5103849;28;20286;-73
2022/04/03 00:08:49;;;;;;;;;;;;;;;-2.72;74.48;102374.25;5109402;28;20010;-74
2022/04/03 00:11:15;;;;;;;;;;;;;;;-2.77;75.80;102372.88;5105803;28;19920;-71
2022/04/03 00:13:41;;;;;;;;;;;;;;;-2.80;75.41;102370.00;5103563;28;19919;-72
2022/04/03 00:16:06;;;;;;;;;;;;;;;-2.83;74.78;102371.34;5100692;28;20008;-72
2022/04/03 00:18:32;;;;;;;;;;;;;;;-2.90;75.14;102369.78;5100696;28;19915;-73
2022/04/03 00:20:57;;;;;;;;;;;;;;;-2.96;75.50;102366.63;5098691;28;19928;-73
2022/04/03 00:23:23;;;;;;;;;;;;;;;-3.00;75.26;102369.53;5102741;28;19958;-73
2022/04/03 00:25:49;;;;;;;;;;;;;;;-3.07;74.55;102367.13;5102881;28;20035;-73
2022/04/03 00:28:15;;;;;;;;;;;;;;;-3.13;75.43;102376.53;5102157;28;19955;-73
2022/04/03 00:30:40;;;;;;;;;;;;;;;-3.19;75.41;102371.72;5109241;28;19924;-73
2022/04/03 00:33:06;;;;;;;;;;;;;;;-3.25;75.30;102377.00;5107993;28;19923;-73
2022/04/03 00:35:32;;;;;;;;;;;;;;;-3.28;76.20;102379.16;5103735;28;19927;-73
2022/04/03 00:37:57;;;;;;;;;;;;;;;-3.32;76.41;102379.59;5105086;28;19924;-73
2022/04/03 00:40:26;;;;;;;;;;;;;;;-3.34;76.73;102377.63;5101070;28;19959;-73
2022/04/03 00:42:51;;;;;;;;;;;;;;;-3.35;76.31;102380.88;5102173;28;19950;-73
2022/04/03 00:45:17;;;;;;;;;;;;;;;-3.38;76.58;102376.41;5101963;28;20356;-73
2022/04/03 00:47:42;;;;;;;;;;;;;;;-3.40;77.03;102374.44;5099864;28;19965;-73
2022/04/03 00:50:08;;;;;;;;;;;;;;;-3.43;77.00;102384.19;5104419;28;19916;-74
2022/04/03 00:52:33;;;;;;;;;;;;;;;-3.43;77.99;102380.06;5103768;28;19920;-73
2022/04/03 00:54:58;;;;;;;;;;;;;;;-3.44;78.18;102385.81;5103099;28;19926;-73
2022/04/03 00:57:24;;;;;;;;;;;;;;;-3.46;78.72;102379.72;5101903;28;20363;-73
2022/04/03 00:59:50;;;;;;;;;;;;;;;-3.44;79.80;102379.91;5105616;28;19930;-73
2022/04/03 01:02:16;;;;;;;;;;;;;;;-3.43;80.28;102370.00;5104351;28;19916;-73
2022/04/03 01:04:41;;;;;;;;;;;;;;;-3.42;79.40;102366.75;5103606;28;19967;-73
2022/04/03 01:07:07;;;;;;;;;;;;;;;-3.43;78.90;102369.09;5103069;28;19969;-73
2022/04/03 01:09:32;;;;;;;;;;;;;;;-3.47;78.73;102374.53;5099383;28;19920;-73
2022/04/03 01:11:58;;;;;;;;;;;;;;;-3.52;78.70;102371.50;5104991;28;19922;-74
2022/04/03 01:14:30;;;;;;;;;;;;;;;-3.59;78.52;102367.44;5101873;28;19973;-73
2022/04/03 01:16:55;;;;;;;;;;;;;;;-3.62;78.92;102376.28;5101202;28;19920;-73
2022/04/03 01:19:20;;;;;;;;;;;;;;;-3.67;78.94;102372.38;5098635;28;19954;-74
2022/04/03 01:21:45;;;;;;;;;;;;;;;-3.66;79.20;102369.13;5104070;28;20423;-73
2022/04/03 01:24:17;;;;;;;;;;;;;;;-3.69;79.27;102369.69;5097799;28;20321;-73
2022/04/03 01:26:43;;;;;;;;;;;;;;;-3.71;79.75;102372.75;5101380;28;19930;-73
2022/04/03 01:29:09;;;;;;;;;;;;;;;-3.75;79.88;102375.69;5097695;28;19916;-74
2022/04/03 01:31:34;;;;;;;;;;;;;;;-3.78;79.98;102371.19;5103615;28;19923;-72
2022/04/03 01:33:59;;;;;;;;;;;;;;;-3.80;80.59;102372.66;5103946;28;19916;-74
2022/04/03 01:36:25;;;;;;;;;;;;;;;-3.82;80.60;102366.59;5101167;28;19920;-74
2022/04/03 01:38:50;;;;;;;;;;;;;;;-3.83;81.38;102368.19;5106449;28;19941;-73
2022/04/03 01:41:15;;;;;;;;;;;;;;;-3.85;81.19;102363.72;5102487;28;19920;-73
2022/04/03 01:43:40;;;;;;;;;;;;;;;-3.87;81.03;102368.59;5103225;28;19938;-73
2022/04/03 01:46:06;;;;;;;;;;;;;;;-3.90;81.31;102362.31;5099279;28;19924;-74
2022/04/03 01:48:32;;;;;;;;;;;;;;;-3.92;81.78;102364.69;5102522;28;20431;-73
2022/04/03 01:50:57;;;;;;;;;;;;;;;-3.94;81.80;102361.13;5101325;28;19924;-73
2022/04/03 01:53:24;;;;;;;;;;;;;;;-3.96;81.73;102355.00;5102118;28;20418;-72
2022/04/03 01:55:58;;;;;;;;;;;;;;;-4.00;82.48;102360.44;5103804;28;19928;-72
2022/04/03 01:58:24;;;;;;;;;;;;;;;-4.01;82.26;102355.22;5100837;28;19920;-73
2022/04/03 02:00:49;;;;;;;;;;;;;;;-4.02;82.81;102353.44;5100464;28;19922;-73
2022/04/03 02:03:14;;;;;;;;;;;;;;;-4.01;83.10;102355.22;5101597;28;20439;-73
2022/04/03 02:05:40;;;;;;;;;;;;;;;-4.02;83.35;102355.97;5102611;28;19998;-73
2022/04/03 02:08:05;;;;;;;;;;;;;;;-4.03;83.53;102356.69;5098699;28;20370;-73
2022/04/03 02:10:31;;;;;;;;;;;;;;;-4.03;83.53;102352.56;5099415;28;20324;-73
2022/04/03 02:12:56;;;;;;;;;;;;;;;-4.05;83.24;102356.53;5102663;28;20463;-73
2022/04/03 02:15:21;;;;;;;;;;;;;;;-4.07;83.60;102351.31;5102256;28;19924;-72
2022/04/03 02:17:46;;;;;;;;;;;;;;;-4.07;84.72;102350.41;5104002;28;19982;-72
2022/04/03 02:20:12;;;;;;;;;;;;;;;-4.08;84.09;102354.56;5105171;28;20373;-73
2022/04/03 02:22:37;;;;;;;;;;;;;;;-4.08;84.54;102353.66;5103670;28;19920;-72
2022/04/03 02:25:04;;;;;;;;;;;;;;;-4.10;84.51;102347.59;5104019;27;19923;-72
2022/04/03 02:27:29;;;;;;;;;;;;;;;-4.13;84.54;102349.75;5099879;28;20050;-72
2022/04/03 02:29:55;;;;;;;;;;;;;;;-4.16;84.13;102351.94;5106389;28;19953;-72
2022/04/03 02:32:20;;;;;;;;;;;;;;;-4.19;84.36;102355.00;5102487;28;19996;-73
2022/04/03 02:34:45;;;;;;;;;;;;;;;-4.22;84.72;102351.25;5102247;28;20386;-73
2022/04/03 02:37:11;;;;;;;;;;;;;;;-4.23;84.71;102346.97;5104989;28;19988;-73
2022/04/03 02:39:36;;;;;;;;;;;;;;;-4.28;84.80;102350.59;5104441;28;19962;-74
2022/04/03 02:42:04;;;;;;;;;;;;;;;-4.30;85.20;102354.56;5103220;28;20459;-73
2022/04/03 02:44:30;;;;;;;;;;;;;;;-4.33;84.73;102352.59;5102159;28;20239;-72
2022/04/03 02:46:55;;;;;;;;;;;;;;;-4.36;85.00;102353.16;5105792;28;20370;-72
2022/04/03 02:49:20;;;;;;;;;;;;;;;-4.37;85.18;102353.88;5104590;28;20058;-72
2022/04/03 02:51:46;;;;;;;;;;;;;;;-4.38;85.59;102354.56;5101752;28;19920;-72
2022/04/03 02:54:12;;;;;;;;;;;;;;;-4.40;85.47;102353.53;5104300;28;19969;-73
2022/04/03 02:56:37;;;;;;;;;;;;;;;-4.40;85.60;102348.50;5108281;28;20444;-73
2022/04/03 02:59:03;;;;;;;;;;;;;;;-4.42;85.74;102360.00;5106044;28;19919;-72
2022/04/03 03:01:28;;;;;;;;;;;;;;;-4.43;85.42;102354.78;5105982;28;19994;-72
2022/04/03 03:03:53;;;;;;;;;;;;;;;-4.43;86.25;102363.25;5102307;28;19919;-72
2022/04/03 03:06:19;;;;;;;;;;;;;;;-4.45;85.83;102353.72;5104650;28;20008;-73
2022/04/03 03:08:44;;;;;;;;;;;;;;;-4.45;86.42;102359.66;5104187;28;19930;-72
2022/04/03 03:11:10;;;;;;;;;;;;;;;-4.45;86.43;102362.16;5107929;28;19919;-73
2022/04/03 03:13:36;;;;;;;;;;;;;;;-4.46;86.18;102362.88;5104049;28;19973;-73
2022/04/03 03:16:02;;;;;;;;;;;;;;;-4.48;86.39;102364.34;5106199;28;20286;-73
2022/04/03 03:18:27;;;;;;;;;;;;;;;-4.50;86.88;102354.84;5107538;28;19938;-73
2022/04/03 03:20:52;;;;;;;;;;;;;;;-4.51;86.97;102358.06;5109119;28;19973;-73
2022/04/03 03:23:18;;;;;;;;;;;;;;;-4.52;87.39;102364.72;5102694;28;19920;-73
2022/04/03 03:25:45;;;;;;;;;;;;;;;-4.52;87.75;102367.22;5106943;28;19920;-73
2022/04/03 03:28:10;;;;;;;;;;;;;;;-4.52;87.75;102368.84;5106562;28;19927;-72
2022/04/03 03:30:36;;;;;;;;;;;;;;;-4.53;87.90;102367.94;5105192;28;19916;-72
2022/04/03 03:33:01;;;;;;;;;;;;;;;-4.49;88.79;102366.66;5107321;28;19920;-73
2022/04/03 03:35:26;;;;;;;;;;;;;;;-4.49;88.70;102366.66;5105487;28;19927;-72
2022/04/03 03:37:52;;;;;;;;;;;;;;;-4.48;89.04;102366.84;5104348;28;19932;-73
2022/04/03 03:40:17;;;;;;;;;;;;;;;-4.45;88.65;102362.16;5106890;28;20405;-73
2022/04/03 03:42:42;;;;;;;;;;;;;;;-4.45;89.60;102372.19;5103620;27;19920;-73
2022/04/03 03:45:09;;;;;;;;;;;;;;;-4.48;89.22;102369.38;5105146;28;20015;-73
2022/04/03 03:47:34;;;;;;;;;;;;;;;-4.52;89.05;102371.34;5102676;28;19927;-73
2022/04/03 03:49:59;;;;;;;;;;;;;;;-4.54;89.51;102371.19;5100291;28;20451;-73
2022/04/03 03:52:25;;;;;;;;;;;;;;;-4.53;89.60;102370.47;5107073;28;19958;-73
2022/04/03 03:54:51;;;;;;;;;;;;;;;-4.53;89.79;102369.56;5103935;28;20354;-73
2022/04/03 03:57:17;;;;;;;;;;;;;;;-4.54;89.77;102370.28;5107342;28;19935;-73
2022/04/03 03:59:43;;;;;;;;;;;;;;;-4.55;89.00;102361.88;5102485;28;19924;-73
2022/04/03 04:02:08;;;;;;;;;;;;;;;-4.58;89.40;102369.03;5103709;28;19922;-72
2022/04/03 04:04:34;;;;;;;;;;;;;;;-4.64;89.22;102364.22;5105579;28;19973;-72
2022/04/03 04:06:59;;;;;;;;;;;;;;;-4.67;89.56;102368.00;5105228;28;19965;-72
2022/04/03 04:09:24;;;;;;;;;;;;;;;-4.69;89.22;102367.84;5100661;28;19959;-72
2022/04/03 04:11:50;;;;;;;;;;;;;;;-4.71;88.92;102363.38;5108444;28;19920;-72
2022/04/03 04:14:15;;;;;;;;;;;;;;;-4.74;88.68;102368.03;5100383;28;19963;-72
2022/04/03 04:16:42;;;;;;;;;;;;;;;-4.77;89.11;102366.09;5105169;28;20638;-72
2022/04/03 04:19:08;;;;;;;;;;;;;;;-4.80;89.28;102369.84;5102915;28;19947;-72
2022/04/03 04:21:33;;;;;;;;;;;;;;;-4.81;88.88;102368.06;5105134;28;20830;-72
2022/04/03 04:23:58;;;;;;;;;;;;;;;-4.86;88.83;102380.09;5106119;28;19964;-72
2022/04/03 04:26:25;;;;;;;;;;;;;;;-4.94;88.64;102376.72;5106691;28;20007;-72
2022/04/03 04:28:51;;;;;;;;;;;;;;;-4.97;90.14;102380.50;5099657;28;19927;-71
2022/04/03 04:31:17;;;;;;;;;;;;;;;-5.03;90.34;102373.19;5100764;28;19926;-72
2022/04/03 04:33:42;;;;;;;;;;;;;;;-5.05;89.83;102374.59;5103246;28;19923;-71
2022/04/03 04:36:07;;;;;;;;;;;;;;;-5.08;89.94;102373.38;5098541;28;20324;-72
2022/04/03 04:38:32;;;;;;;;;;;;;;;-5.12;90.32;102364.59;5100702;28;20010;-72
2022/04/03 04:40:58;;;;;;;;;;;;;;;-5.12;90.07;102382.16;5101306;28;19928;-72
2022/04/03 04:43:23;;;;;;;;;;;;;;;-5.14;90.25;102379.47;5101376;28;19984;-73
2022/04/03 04:45:48;;;;;;;;;;;;;;;-5.18;89.70;102387.34;5101222;28;20011;-73
2022/04/03 04:48:13;;;;;;;;;;;;;;;-5.20;89.65;102390.41;5098957;28;19993;-73
2022/04/03 04:50:39;;;;;;;;;;;;;;;-5.22;91.32;102391.84;5098523;28;19923;-73
2022/04/03 04:53:04;;;;;;;;;;;;;;;-5.20;92.24;102388.81;5100158;28;19927;-73
2022/04/03 04:55:29;;;;;;;;;;;;;;;-5.19;92.08;102395.59;5102227;28;20253;-74
2022/04/03 04:57:57;;;;;;;;;;;;;;;-5.19;92.40;102397.22;5102301;27;19924;-74
2022/04/03 05:00:24;;;;;;;;;;;;;;;-5.17;92.52;102403.28;5105011;27;19920;-72
2022/04/03 05:02:49;;;;;;;;;;;;;;;-5.14;92.60;102402.03;5106840;28;19998;-73
2022/04/03 05:05:16;;;;;;;;;;;;;;;-5.12;92.54;102404.72;5103955;27;20022;-73
2022/04/03 05:07:42;;;;;;;;;;;;;;;-5.10;92.28;102409.91;5105709;27;19996;-72
2022/04/03 05:10:08;;;;;;;;;;;;;;;-5.09;92.56;102415.13;5104775;28;20032;-72
2022/04/03 05:12:36;;;;;;;;;;;;;;;-5.03;93.92;102408.31;5104758;28;19954;-72
2022/04/03 05:15:02;;;;;;;;;;;;;;;-4.99;92.48;102405.41;5124221;28;19978;-72
2022/04/03 05:17:28;;;;;;;;;;;;;;;-4.99;92.24;102414.53;5116749;27;19931;-72
2022/04/03 05:19:56;;;;;;;;;;;;;;;-4.97;92.80;102411.50;5110312;28;20427;-72
2022/04/03 05:22:23;;;;;;;;;;;;;;;-4.92;93.21;102410.38;5109389;28;19916;-72
2022/04/03 05:24:49;;;;;;;;;;;;;;;-4.84;92.64;102410.41;5108427;28;19923;-72
2022/04/03 05:27:14;;;;;;;;;;;;;;;-4.80;92.53;102415.91;5102859;28;19983;-72
2022/04/03 05:29:40;;;;;;;;;;;;;;;-4.75;92.34;102412.31;5104537;28;20014;-72
2022/04/03 05:32:07;;;;;;;;;;;;;;;-4.69;92.14;102414.63;5105532;28;19959;-72
2022/04/03 05:34:32;;;;;;;;;;;;;;;-4.58;92.90;102421.75;5105841;28;20457;-72
2022/04/03 05:36:57;;;;;;;;;;;;;;;-4.47;93.25;102412.94;5103678;28;19926;-73
2022/04/03 05:39:23;;;;;;;;;;;;;;;-4.36;93.04;102418.44;5103394;28;19920;-73
2022/04/03 05:41:50;;;;;;;;;;;;;;;-4.23;93.73;102409.75;5102734;28;20373;-73
2022/04/03 05:44:15;;;;;;;;;;;;;;;-4.12;92.71;102417.75;5102186;28;20360;-73
2022/04/03 05:46:40;;;;;;;;;;;;;;;-3.99;91.59;102425.03;5102570;28;19915;-73
2022/04/03 05:49:05;;;;;;;;;;;;;;;-3.89;88.88;102414.38;5097558;28;20562;-73
2022/04/03 05:51:31;;;;;;;;;;;;;;;-3.77;83.45;102420.75;5099763;28;19920;-73
2022/04/03 05:53:56;;;;;;;;;;;;;;;-3.65;84.49;102422.09;5101025;28;19934;-73
2022/04/03 05:56:27;;;;;;;;;;;;;;;-3.54;84.50;102421.63;5100850;28;19920;-73
2022/04/03 05:58:52;;;;;;;;;;;;;;;-3.41;82.78;102425.47;5103123;28;19923;-73
2022/04/03 06:01:17;;;;;;;;;;;;;;;-3.31;79.46;102419.09;5099662;28;19927;-73
2022/04/03 06:03:43;;;;;;;;;;;;;;;-3.18;81.42;102425.47;5103335;28;20738;-73
2022/04/03 06:06:08;;;;;;;;;;;;;;;-3.05;83.32;102426.03;5102102;28;19920;-73
2022/04/03 06:08:33;;;;;;;;;;;;;;;-2.93;83.40;102424.81;5103204;28;20450;-73
2022/04/03 06:10:59;;;;;;;;;;;;;;;-2.82;80.79;102433.53;5096517;28;19924;-73
2022/04/03 06:13:25;;;;;;;;;;;;;;;-2.71;82.11;102428.00;5097862;28;19928;-73
2022/04/03 06:15:50;;;;;;;;;;;;;;;-2.58;80.05;102422.63;5100340;28;19939;-73
2022/04/03 06:18:16;;;;;;;;;;;;;;;-2.42;84.47;102423.53;5101551;28;19932;-73
2022/04/03 06:20:41;;;;;;;;;;;;;;;-2.19;82.35;102425.88;5098715;28;19923;-73
2022/04/03 06:23:12;;;;;;;;;;;;;;;-1.95;79.78;102432.56;5100285;28;20976;-73
2022/04/03 06:25:37;;;;;;;;;;;;;;;-1.68;77.56;102430.38;5100416;28;19924;-73
2022/04/03 06:28:03;;;;;;;;;;;;;;;-1.45;76.37;102425.13;5100663;28;19923;-73
2022/04/03 06:30:28;;;;;;;;;;;;;;;-1.33;77.90;102422.94;5102444;28;19920;-73
2022/04/03 06:32:53;;;;;;;;;;;;;;;-1.12;79.64;102424.19;5104498;28;20451;-73
2022/04/03 06:35:19;;;;;;;;;;;;;;;-1.05;77.40;102428.22;5105873;28;19927;-73
2022/04/03 06:37:44;;;;;;;;;;;;;;;-1.02;77.46;102429.41;5102643;28;20390;-73
2022/04/03 06:40:09;;;;;;;;;;;;;;;-0.92;78.41;102428.69;5103660;28;19928;-73
2022/04/03 06:42:35;;;;;;;;;;;;;;;-0.66;82.77;102429.63;5104796;28;20382;-72
2022/04/03 06:45:01;;;;;;;;;;;;;;;-0.58;80.32;102423.66;5100218;27;19920;-73
2022/04/03 06:47:26;;;;;;;;;;;;;;;-0.56;78.82;102426.34;5109058;28;19930;-73
2022/04/03 06:49:52;;;;;;;;;;;;;;;-0.28;79.56;102429.91;5104327;27;19922;-73
2022/04/03 06:52:17;;;;;;;;;;;;;;;0.67;79.18;102428.78;5108544;27;20018;-73
2022/04/03 06:54:43;;;;;;;;;;;;;;;1.85;77.37;102420.91;5103461;28;19920;-74
2022/04/03 06:57:08;;;;;;;;;;;;;;;3.47;76.45;102423.59;5108209;28;19943;-74
2022/04/03 06:59:33;;;;;;;;;;;;;;;5.02;73.84;102416.19;5106569;28;20061;-72
2022/04/03 07:01:58;;;;;;;;;;;;;;;6.76;66.39;102417.66;5107649;27;19920;-73
2022/04/03 07:04:24;;;;;;;;;;;;;;;8.10;65.69;102412.78;5104899;28;19927;-72
2022/04/03 07:06:49;;;;;;;;;;;;;;;9.16;62.89;102405.63;5107494;27;20353;-73
2022/04/03 07:09:14;;;;;;;;;;;;;;;10.12;60.80;102412.72;5106293;28;19920;-72
2022/04/03 07:11:40;;;;;;;;;;;;;;;11.08;58.11;102409.22;5106072;27;19919;-73
2022/04/03 07:14:05;;;;;;;;;;;;;;;12.07;51.48;102408.94;5107401;27;19920;-74
2022/04/03 07:16:30;;;;;;;;;;;;;;;12.70;51.32;102402.34;5105341;27;19920;-74
2022/04/03 07:18:56;;;;;;;;;;;;;;;13.54;54.71;102405.94;5103974;28;20425;-74
2022/04/03 07:21:21;;;;;;;;;;;;;;;14.53;44.34;102405.44;5109833;27;20370;-72
2022/04/03 07:23:47;;;;;;;;;;;;;;;15.16;47.74;102400.72;5107073;27;19923;-72
2022/04/03 07:26:12;;;;;;;;;;;;;;;15.83;51.06;102405.53;5109213;27;19945;-73
2022/04/03 07:28:37;;;;;;;;;;;;;;;16.48;48.51;102404.03;5088151;28;19998;-73
2022/04/03 07:31:03;;;;;;;;;;;;;;;16.91;47.64;102407.81;5106646;28;19943;-74
2022/04/03 07:33:28;;;;;;;;;;;;;;;17.54;46.10;102409.44;5107054;27;19944;-74
2022/04/03 07:35:53;;;;;;;;;;;;;;;18.13;40.31;102408.19;5105885;28;19936;-74
2022/04/03 07:38:19;;;;;;;;;;;;;;;18.07;40.28;102413.28;5107410;27;19931;-74
2022/04/03 07:40:48;;;;;;;;;;;;;;;18.17;41.79;102409.16;5108438;28;20333;-75
2022/04/03 07:43:16;;;;;;;;;;;;;;;18.69;41.74;102410.25;5104806;28;19922;-75
2022/04/03 07:45:43;;;;;;;;;;;;;;;19.22;39.45;102415.53;5103109;28;19915;-74
2022/04/03 07:48:09;;;;;;;;;;;;;;;19.69;35.72;102411.13;5108537;28;20567;-74
2022/04/03 07:50:34;;;;;;;;;;;;;;;19.85;36.99;102407.03;5106074;28;19972;-74
2022/04/03 07:53:00;;;;;;;;;;;;;;;20.23;35.98;102414.50;5106675;28;19965;-74
2022/04/03 07:55:25;;;;;;;;;;;;;;;20.17;32.43;102403.97;5102005;28;19947;-74
2022/04/03 07:57:50;;;;;;;;;;;;;;;20.29;36.08;102409.34;5106117;28;19931;-74
2022/04/03 08:00:16;;;;;;;;;;;;;;;20.62;37.18;102414.97;5103576;28;20078;-74
2022/04/03 08:02:42;;;;;;;;;;;;;;;21.12;36.72;102411.16;5099311;28;19924;-74
2022/04/03 08:05:08;;;;;;;;;;;;;;;21.19;34.50;102410.34;5104518;28;20339;-74
2022/04/03 08:07:40;;;;;;;;;;;;;;;21.66;34.59;102409.88;5104144;28;19923;-74
2022/04/03 08:10:08;;;;;;;;;;;;;;;22.33;33.23;102415.50;5103947;28;19927;-75
2022/04/03 08:12:37;;;;;;;;;;;;;;;22.68;31.93;102409.47;5109119;28;20385;-73
2022/04/03 08:15:04;;;;;;;;;;;;;;;22.70;30.51;102410.38;5105886;28;19988;-74
2022/04/03 08:17:29;;;;;;;;;;;;;;;22.68;27.78;102404.22;5105934;28;19950;-74
2022/04/03 08:19:54;;;;;;;;;;;;;;;22.81;28.70;102408.63;5104798;28;19924;-74
2022/04/03 08:22:19;;;;;;;;;;;;;;;22.77;25.04;102404.25;5103039;28;20343;-73
2022/04/03 08:24:45;;;;;;;;;;;;;;;22.52;31.60;102411.19;5105475;28;19965;-73
2022/04/03 08:27:12;;;;;;;;;;;;;;;22.72;26.33;102408.63;5104215;28;19977;-74
2022/04/03 08:29:37;;;;;;;;;;;;;;;22.99;30.74;102408.72;5103231;28;19916;-74
2022/04/03 08:32:03;;;;;;;;;;;;;;;23.42;30.91;102408.72;5105466;27;19923;-74
2022/04/03 08:34:28;;;;;;;;;;;;;;;24.06;28.46;102408.59;5103753;28;20011;-73
2022/04/03 08:36:53;;;;;;;;;;;;;;;24.28;26.44;102408.53;5103391;28;20006;-74
2022/04/03 08:39:19;;;;;;;;;;;;;;;24.52;25.26;102405.81;5107464;28;19924;-73
2022/04/03 08:41:44;;;;;;;;;;;;;;;24.94;27.62;102410.81;5105204;28;20269;-73
2022/04/03 08:44:10;;;;;;;;;;;;;;;25.45;28.23;102412.16;5104750;28;20014;-73
2022/04/03 08:46:37;;;;;;;;;;;;;;;25.92;25.46;102401.16;5106010;28;19924;-73
2022/04/03 08:49:03;;;;;;;;;;;;;;;25.56;27.36;102407.66;5108355;28;19947;-73
2022/04/03 08:51:31;;;;;;;;;;;;;;;25.70;21.25;102415.44;5103703;28;20362;-73
2022/04/03 08:53:57;;;;;;;;;;;;;;;25.53;27.20;102417.34;5103432;28;19931;-73
2022/04/03 08:56:22;;;;;;;;;;;;;;;26.43;23.39;102409.34;5103718;28;20277;-73
2022/04/03 08:58:47;;;;;;;;;;;;;;;26.94;21.24;102406.84;5106847;28;19928;-72
2022/04/03 09:01:16;;;;;;;;;;;;;;;27.83;24.86;102401.81;5104809;28;19919;-72
2022/04/03 09:03:41;;;;;;;;;;;;;;;27.75;23.40;102410.78;5105006;28;20434;-72
2022/04/03 09:06:14;;;;;;;;;;;;;;;25.63;24.43;102414.63;5105447;28;19968;-73
2022/04/03 09:08:39;;;;;;;;;;;;;;;23.38;24.61;102406.09;5104115;28;19982;-73
2022/04/03 09:11:05;;;;;;;;;;;;;;;21.65;24.89;102419.44;5103409;28;20499;-73
2022/04/03 09:13:31;;;;;;;;;;;;;;;20.77;28.56;102409.06;5104290;28;19928;-73
2022/04/03 09:15:56;;;;;;;;;;;;;;;20.39;28.98;102406.00;5102727;28;19960;-73
2022/04/03 09:18:21;;;;;;;;;;;;;;;19.69;28.06;102405.03;5105294;28;20084;-73
2022/04/03 09:20:46;;;;;;;;;;;;;;;19.92;28.03;102408.84;5104306;28;19924;-73
2022/04/03 09:23:16;;;;;;;;;;;;;;;21.85;28.64;102400.38;5105596;28;20010;-73
2022/04/03 09:25:42;;;;;;;;;;;;;;;23.44;26.84;102399.06;5100893;28;20006;-73
2022/04/03 09:28:08;;;;;;;;;;;;;;;25.02;24.79;102396.69;5103985;27;20068;-73
2022/04/03 09:30:35;;;;;;;;;;;;;;;25.85;20.87;102393.34;5103901;28;19964;-74
2022/04/03 09:33:01;;;;;;;;;;;;;;;25.85;22.04;102398.63;5103535;28;19926;-74
2022/04/03 09:35:27;;;;;;;;;;;;;;;26.30;24.65;102388.41;5102505;28;19923;-74
2022/04/03 09:38:06;;;;;;;;;;;;;;;27.04;21.56;102386.44;5101232;28;19928;-72
2022/04/03 09:40:32;;;;;;;;;;;;;;;27.57;20.92;102384.66;5105714;28;20006;-74
2022/04/03 09:43:17;;;;;;;;;;;;;;;27.47;21.88;102389.22;5101007;28;20719;-73
2022/04/03 09:45:43;;;;;;;;;;;;;;;26.11;23.05;102386.00;5096314;28;19968;-72
2022/04/03 09:48:21;;;;;;;;;;;;;;;27.25;22.36;102374.69;5098692;28;20042;-73
2022/04/03 09:50:59;;;;;;;;;;;;;;;27.70;22.12;102378.25;5095847;28;19939;-73
2022/04/03 09:53:26;;;;;;;;;;;;;;;28.48;22.09;102370.50;5097332;28;19915;-73
2022/04/03 09:55:51;;;;;;;;;;;;;;;29.32;20.42;102374.59;5098004;28;19935;-74
2022/04/03 09:58:16;;;;;;;;;;;;;;;29.99;21.48;102361.28;5098765;28;19924;-73
2022/04/03 10:00:42;;;;;;;;;;;;;;;30.80;18.59;102365.88;5106751;28;19993;-73
2022/04/03 10:03:10;;;;;;;;;;;;;;;30.50;17.72;102357.09;5104129;28;19954;-74
2022/04/03 10:05:36;;;;;;;;;;;;;;;29.15;18.56;102350.34;5108259;28;19943;-73
2022/04/03 10:08:02;;;;;;;;;;;;;;;26.70;20.10;102360.59;5108580;27;19969;-72
2022/04/03 10:10:27;;;;;;;;;;;;;;;25.56;23.13;102355.00;5112320;28;19916;-72
2022/04/03 10:12:54;;;;;;;;;;;;;;;25.76;23.27;102352.16;5111091;28;19919;-72
2022/04/03 10:15:19;;;;;;;;;;;;;;;25.56;21.32;102346.22;5111769;27;20064;-72
2022/04/03 10:17:44;;;;;;;;;;;;;;;24.80;22.40;102351.25;5113052;28;20026;-72
2022/04/03 10:20:10;;;;;;;;;;;;;;;23.41;24.07;102350.94;5104617;27;20405;-71
2022/04/03 10:22:38;;;;;;;;;;;;;;;22.36;23.51;102349.97;5111302;28;20049;-72
2022/04/03 10:25:05;;;;;;;;;;;;;;;21.08;24.47;102352.69;5112212;27;20460;-72
2022/04/03 10:27:32;;;;;;;;;;;;;;;20.69;27.08;102352.31;5110430;27;19916;-73
2022/04/03 10:29:58;;;;;;;;;;;;;;;20.84;25.85;102353.34;5113796;28;19922;-72
2022/04/03 10:32:25;;;;;;;;;;;;;;;22.44;25.98;102342.13;5108200;28;19915;-73
2022/04/03 10:34:52;;;;;;;;;;;;;;;24.02;22.20;102338.53;5112037;27;19916;-72
2022/04/03 10:37:23;;;;;;;;;;;;;;;22.69;23.71;102335.19;5111566;27;19920;-73
2022/04/03 10:39:51;;;;;;;;;;;;;;;20.80;24.49;102338.50;5106603;28;19919;-73
2022/04/03 10:42:20;;;;;;;;;;;;;;;19.28;24.41;102335.66;5107779;28;19923;-72
2022/04/03 10:45:06;;;;;;;;;;;;;;;17.94;26.41;102335.78;5110870;27;19916;-72
2022/04/03 10:47:32;;;;;;;;;;;;;;;16.88;28.67;102337.63;5098292;28;19945;-73
2022/04/03 10:49:57;;;;;;;;;;;;;;;16.50;29.63;102329.66;5110469;28;19923;-72
2022/04/03 10:52:22;;;;;;;;;;;;;;;16.28;30.25;102337.69;5111430;28;19919;-72
2022/04/03 10:54:52;;;;;;;;;;;;;;;16.15;30.85;102335.59;5108675;28;19920;-73
2022/04/03 10:57:35;;;;;;;;;;;;;;;16.19;31.08;102340.88;5109179;27;19924;-72
2022/04/03 11:00:13;;;;;;;;;;;;;;;16.05;31.10;102335.31;5111082;28;19916;-72
2022/04/03 11:02:42;;;;;;;;;;;;;;;16.11;30.87;102334.63;5109372;28;19923;-72
2022/04/03 11:05:29;;;;;;;;;;;;;;;16.29;29.26;102324.75;5110336;27;19923;-72
2022/04/03 11:08:00;;;;;;;;;;;;;;;16.07;30.96;102330.16;5109727;28;19931;-72
2022/04/03 11:10:50;;;;;;;;;;;;;;;15.82;31.04;102324.25;5108700;28;20129;-73
2022/04/03 11:13:16;;;;;;;;;;;;;;;15.43;31.05;102330.81;5112905;28;19920;-73
2022/04/03 11:15:51;;;;;;;;;;;;;;;15.03;31.50;102325.19;5102254;27;19923;-72
2022/04/03 11:18:25;;;;;;;;;;;;;;;14.48;32.56;102325.91;5107414;27;20019;-72
2022/04/03 11:21:04;;;;;;;;;;;;;;;14.19;33.05;102321.34;5106819;28;19916;-72
2022/04/03 11:23:30;;;;;;;;;;;;;;;14.20;34.25;102320.56;5105867;28;19962;-72
2022/04/03 11:25:55;;;;;;;;;;;;;;;14.21;34.00;102322.31;5109636;27;19967;-72
2022/04/03 11:28:21;;;;;;;;;;;;;;;14.16;34.52;102313.50;5106227;27;19927;-72
2022/04/03 11:30:46;;;;;;;;;;;;;;;14.25;33.21;102313.81;5110079;27;19916;-72
2022/04/03 11:33:12;;;;;;;;;;;;;;;14.55;33.50;102314.06;5102542;28;20018;-72
2022/04/03 11:35:40;;;;;;;;;;;;;;;16.09;31.62;102308.63;5106253;28;19926;-72
2022/04/03 11:38:05;;;;;;;;;;;;;;;16.74;29.18;102307.78;5109067;28;19930;-72
2022/04/03 11:40:32;;;;;;;;;;;;;;;16.27;31.43;102307.38;5112433;27;20364;-72
2022/04/03 11:43:07;;;;;;;;;;;;;;;16.16;30.78;102299.28;5102631;27;19922;-72
2022/04/03 11:45:32;;;;;;;;;;;;;;;15.99;30.59;102309.19;5107548;27;20015;-72
2022/04/03 11:48:14;;;;;;;;;;;;;;;15.65;32.04;102302.16;5107312;28;20010;-70
2022/04/03 11:50:39;;;;;;;;;;;;;;;14.95;33.72;102294.69;5105842;28;19924;-70
2022/04/03 11:53:11;;;;;;;;;;;;;;;14.40;34.20;102304.03;5105982;28;19924;-71
2022/04/03 11:55:36;;;;;;;;;;;;;;;13.95;36.02;102301.56;5100580;28;20334;-71
2022/04/03 11:58:04;;;;;;;;;;;;;;;13.84;34.58;102307.16;5107683;28;19972;-71
2022/04/03 12:00:30;;;;;;;;;;;;;;;13.85;35.50;102302.03;5108518;28;19955;-71
2022/04/03 12:02:58;;;;;;;;;;;;;;;14.05;35.06;102302.75;5107354;28;20371;-71
2022/04/03 12:05:24;;;;;;;;;;;;;;;13.65;37.81;102292.59;5107803;28;19919;-72
2022/04/03 12:07:50;;;;;;;;;;;;;;;13.18;38.36;102299.38;5106484;28;19928;-71
2022/04/03 12:10:26;;;;;;;;;;;;;;;14.29;40.37;102302.75;5100694;28;20016;-70
2022/04/03 12:12:53;;;;;;;;;;;;;;;17.53;34.59;102286.28;5106650;28;19950;-72
2022/04/03 12:15:22;;;;;;;;;;;;;;;19.73;31.12;102287.66;5108009;28;19923;-72
2022/04/03 12:17:57;;;;;;;;;;;;;;;20.64;29.28;102278.25;5106984;28;19924;-71
2022/04/03 12:20:22;;;;;;;;;;;;;;;21.34;28.55;102278.78;5122913;27;19938;-72
2022/04/03 12:22:51;;;;;;;;;;;;;;;20.55;27.85;102281.63;5106838;28;20469;-72
2022/04/03 12:25:16;;;;;;;;;;;;;;;18.89;29.24;102277.69;5109832;28;20026;-72
2022/04/03 12:27:42;;;;;;;;;;;;;;;18.96;29.34;102276.94;5121066;28;20341;-72
2022/04/03 12:30:09;;;;;;;;;;;;;;;19.21;28.06;102266.03;5111493;28;19968;-71
2022/04/03 12:32:36;;;;;;;;;;;;;;;21.02;25.93;102270.69;5107063;28;19919;-72
2022/04/03 12:35:01;;;;;;;;;;;;;;;22.92;25.95;102257.41;5105119;28;20660;-72